sensor_id;sensor_type;location;lat;lon;timestamp;P1;durP1;ratioP1;P2;durP2;ratioP2
14797;SDS011;7490;63.708;20.368;2024-02-15T00:00:39;15.93;;;8.07;;
14797;SDS011;7490;63.708;20.368;2024-02-15T00:03:07;13.13;;;6.77;;
14797;SDS011;7490;63.708;20.368;2024-02-15T00:05:33;13.80;;;6.90;;
14797;SDS011;7490;63.708;20.368;2024-02-15T00:08:01;11.40;;;7.80;;
14797;SDS011;7490;63.708;20.368;2024-02-15T00:10:27;12.63;;;6.87;;
14797;SDS011;7490;63.708;20.368;2024-02-15T00:12:53;14.23;;;7.10;;
14797;SDS011;7490;63.708;20.368;2024-02-15T00:15:19;13.13;;;7.43;;
14797;SDS011;7490;63.708;20.368;2024-02-15T00:17:44;13.37;;;6.40;;
14797;SDS011;7490;63.708;20.368;2024-02-15T00:20:12;11.97;;;6.40;;
14797;SDS011;7490;63.708;20.368;2024-02-15T00:22:38;15.97;;;7.27;;
14797;SDS011;7490;63.708;20.368;2024-02-15T00:25:06;16.33;;;7.50;;
14797;SDS011;7490;63.708;20.368;2024-02-15T00:27:34;16.33;;;7.33;;
14797;SDS011;7490;63.708;20.368;2024-02-15T00:30:03;13.53;;;7.13;;
14797;SDS011;7490;63.708;20.368;2024-02-15T00:32:33;13.63;;;7.40;;
14797;SDS011;7490;63.708;20.368;2024-02-15T00:34:58;12.50;;;6.90;;
14797;SDS011;7490;63.708;20.368;2024-02-15T00:37:24;11.23;;;6.37;;
14797;SDS011;7490;63.708;20.368;2024-02-15T00:39:50;14.60;;;7.47;;
14797;SDS011;7490;63.708;20.368;2024-02-15T00:42:16;12.67;;;6.50;;
14797;SDS011;7490;63.708;20.368;2024-02-15T00:44:41;14.83;;;6.87;;
14797;SDS011;7490;63.708;20.368;2024-02-15T00:47:09;15.33;;;7.63;;
14797;SDS011;7490;63.708;20.368;2024-02-15T00:49:35;16.13;;;7.47;;
14797;SDS011;7490;63.708;20.368;2024-02-15T00:52:01;11.90;;;6.23;;
14797;SDS011;7490;63.708;20.368;2024-02-15T00:54:27;15.23;;;7.20;;
14797;SDS011;7490;63.708;20.368;2024-02-15T00:56:52;13.33;;;6.80;;
14797;SDS011;7490;63.708;20.368;2024-02-15T00:59:18;13.83;;;6.83;;
14797;SDS011;7490;63.708;20.368;2024-02-15T01:01:44;14.03;;;6.77;;
14797;SDS011;7490;63.708;20.368;2024-02-15T01:04:10;15.83;;;7.07;;
14797;SDS011;7490;63.708;20.368;2024-02-15T01:06:35;17.97;;;7.63;;
14797;SDS011;7490;63.708;20.368;2024-02-15T01:09:01;16.87;;;7.50;;
14797;SDS011;7490;63.708;20.368;2024-02-15T01:11:28;14.33;;;6.87;;
14797;SDS011;7490;63.708;20.368;2024-02-15T01:13:57;14.87;;;6.80;;
14797;SDS011;7490;63.708;20.368;2024-02-15T01:16:23;16.40;;;7.50;;
14797;SDS011;7490;63.708;20.368;2024-02-15T01:18:49;15.00;;;7.40;;
14797;SDS011;7490;63.708;20.368;2024-02-15T01:21:15;15.87;;;8.23;;
14797;SDS011;7490;63.708;20.368;2024-02-15T01:23:42;12.90;;;7.07;;
14797;SDS011;7490;63.708;20.368;2024-02-15T01:26:09;15.87;;;7.80;;
14797;SDS011;7490;63.708;20.368;2024-02-15T01:28:37;13.37;;;6.90;;
14797;SDS011;7490;63.708;20.368;2024-02-15T01:31:03;15.53;;;7.47;;
14797;SDS011;7490;63.708;20.368;2024-02-15T01:33:28;14.80;;;7.00;;
14797;SDS011;7490;63.708;20.368;2024-02-15T01:35:54;15.63;;;7.50;;
14797;SDS011;7490;63.708;20.368;2024-02-15T01:38:20;14.33;;;7.17;;
14797;SDS011;7490;63.708;20.368;2024-02-15T01:40:46;14.13;;;7.53;;
14797;SDS011;7490;63.708;20.368;2024-02-15T01:43:12;14.60;;;7.40;;
14797;SDS011;7490;63.708;20.368;2024-02-15T01:45:39;16.53;;;7.37;;
14797;SDS011;7490;63.708;20.368;2024-02-15T01:48:04;15.33;;;7.50;;
14797;SDS011;7490;63.708;20.368;2024-02-15T01:50:31;12.30;;;6.73;;
14797;SDS011;7490;63.708;20.368;2024-02-15T01:52:59;15.17;;;7.10;;
14797;SDS011;7490;63.708;20.368;2024-02-15T01:55:26;13.53;;;6.87;;
14797;SDS011;7490;63.708;20.368;2024-02-15T01:57:52;11.97;;;6.97;;
14797;SDS011;7490;63.708;20.368;2024-02-15T02:00:18;15.83;;;6.53;;
14797;SDS011;7490;63.708;20.368;2024-02-15T02:02:44;12.50;;;6.93;;
14797;SDS011;7490;63.708;20.368;2024-02-15T02:05:11;14.03;;;6.93;;
14797;SDS011;7490;63.708;20.368;2024-02-15T02:07:37;15.80;;;7.80;;
14797;SDS011;7490;63.708;20.368;2024-02-15T02:10:03;15.83;;;6.97;;
14797;SDS011;7490;63.708;20.368;2024-02-15T02:12:29;14.57;;;7.00;;
14797;SDS011;7490;63.708;20.368;2024-02-15T02:14:56;15.07;;;7.20;;
14797;SDS011;7490;63.708;20.368;2024-02-15T02:17:22;14.07;;;7.07;;
14797;SDS011;7490;63.708;20.368;2024-02-15T02:19:48;16.63;;;6.67;;
14797;SDS011;7490;63.708;20.368;2024-02-15T02:22:17;18.20;;;7.30;;
14797;SDS011;7490;63.708;20.368;2024-02-15T02:27:28;16.33;;;7.60;;
14797;SDS011;7490;63.708;20.368;2024-02-15T02:29:55;15.63;;;6.53;;
14797;SDS011;7490;63.708;20.368;2024-02-15T02:32:22;17.93;;;7.40;;
14797;SDS011;7490;63.708;20.368;2024-02-15T02:34:47;16.77;;;7.17;;
14797;SDS011;7490;63.708;20.368;2024-02-15T02:37:13;12.47;;;6.93;;
14797;SDS011;7490;63.708;20.368;2024-02-15T02:39:39;12.67;;;6.57;;
14797;SDS011;7490;63.708;20.368;2024-02-15T02:42:07;13.57;;;6.40;;
14797;SDS011;7490;63.708;20.368;2024-02-15T02:44:33;13.57;;;6.80;;
14797;SDS011;7490;63.708;20.368;2024-02-15T02:46:59;13.00;;;6.77;;
14797;SDS011;7490;63.708;20.368;2024-02-15T02:49:25;12.23;;;6.17;;
14797;SDS011;7490;63.708;20.368;2024-02-15T02:51:50;12.70;;;6.93;;
14797;SDS011;7490;63.708;20.368;2024-02-15T02:54:16;13.73;;;6.53;;
14797;SDS011;7490;63.708;20.368;2024-02-15T02:56:42;14.40;;;7.33;;
14797;SDS011;7490;63.708;20.368;2024-02-15T02:59:10;11.73;;;6.23;;
14797;SDS011;7490;63.708;20.368;2024-02-15T03:01:35;13.37;;;6.33;;
14797;SDS011;7490;63.708;20.368;2024-02-15T03:04:01;13.03;;;6.33;;
14797;SDS011;7490;63.708;20.368;2024-02-15T03:06:27;12.67;;;6.87;;
14797;SDS011;7490;63.708;20.368;2024-02-15T03:08:53;13.57;;;6.87;;
14797;SDS011;7490;63.708;20.368;2024-02-15T03:11:22;17.27;;;7.40;;
14797;SDS011;7490;63.708;20.368;2024-02-15T03:13:48;12.00;;;6.40;;
14797;SDS011;7490;63.708;20.368;2024-02-15T03:16:14;15.87;;;6.73;;
14797;SDS011;7490;63.708;20.368;2024-02-15T03:18:41;13.07;;;6.57;;
14797;SDS011;7490;63.708;20.368;2024-02-15T03:21:08;15.87;;;6.70;;
14797;SDS011;7490;63.708;20.368;2024-02-15T03:23:37;12.93;;;6.00;;
14797;SDS011;7490;63.708;20.368;2024-02-15T03:26:02;12.33;;;5.43;;
14797;SDS011;7490;63.708;20.368;2024-02-15T03:28:31;15.67;;;6.63;;
14797;SDS011;7490;63.708;20.368;2024-02-15T03:30:57;13.50;;;5.93;;
14797;SDS011;7490;63.708;20.368;2024-02-15T03:33:25;14.70;;;6.67;;
14797;SDS011;7490;63.708;20.368;2024-02-15T03:35:53;16.93;;;6.53;;
14797;SDS011;7490;63.708;20.368;2024-02-15T03:38:19;19.90;;;6.97;;
14797;SDS011;7490;63.708;20.368;2024-02-15T03:40:45;15.10;;;7.10;;
14797;SDS011;7490;63.708;20.368;2024-02-15T03:43:10;15.40;;;7.23;;
14797;SDS011;7490;63.708;20.368;2024-02-15T03:45:36;16.07;;;6.47;;
14797;SDS011;7490;63.708;20.368;2024-02-15T03:48:02;17.87;;;7.30;;
14797;SDS011;7490;63.708;20.368;2024-02-15T03:50:30;14.97;;;7.17;;
14797;SDS011;7490;63.708;20.368;2024-02-15T03:52:57;12.30;;;6.53;;
14797;SDS011;7490;63.708;20.368;2024-02-15T03:55:24;18.97;;;6.70;;
14797;SDS011;7490;63.708;20.368;2024-02-15T03:57:50;16.57;;;6.77;;
14797;SDS011;7490;63.708;20.368;2024-02-15T04:00:17;17.73;;;6.97;;
14797;SDS011;7490;63.708;20.368;2024-02-15T04:02:46;17.07;;;6.83;;
14797;SDS011;7490;63.708;20.368;2024-02-15T04:05:15;16.30;;;7.00;;
14797;SDS011;7490;63.708;20.368;2024-02-15T04:07:43;17.20;;;6.53;;
14797;SDS011;7490;63.708;20.368;2024-02-15T04:10:09;15.43;;;7.00;;
14797;SDS011;7490;63.708;20.368;2024-02-15T04:12:35;19.50;;;6.77;;
14797;SDS011;7490;63.708;20.368;2024-02-15T04:15:01;19.60;;;6.97;;
14797;SDS011;7490;63.708;20.368;2024-02-15T04:17:36;13.97;;;6.60;;
14797;SDS011;7490;63.708;20.368;2024-02-15T04:20:05;16.93;;;7.27;;
14797;SDS011;7490;63.708;20.368;2024-02-15T04:22:34;14.80;;;7.03;;
14797;SDS011;7490;63.708;20.368;2024-02-15T04:25:04;20.43;;;7.33;;
14797;SDS011;7490;63.708;20.368;2024-02-15T04:27:31;20.10;;;7.43;;
14797;SDS011;7490;63.708;20.368;2024-02-15T04:29:57;21.43;;;8.53;;
14797;SDS011;7490;63.708;20.368;2024-02-15T04:32:22;19.23;;;7.63;;
14797;SDS011;7490;63.708;20.368;2024-02-15T04:34:48;23.13;;;8.47;;
14797;SDS011;7490;63.708;20.368;2024-02-15T04:37:14;23.63;;;8.90;;
14797;SDS011;7490;63.708;20.368;2024-02-15T04:39:41;26.17;;;8.97;;
14797;SDS011;7490;63.708;20.368;2024-02-15T04:42:08;26.27;;;9.60;;
14797;SDS011;7490;63.708;20.368;2024-02-15T04:44:39;28.03;;;9.50;;
14797;SDS011;7490;63.708;20.368;2024-02-15T04:47:05;27.47;;;9.73;;
14797;SDS011;7490;63.708;20.368;2024-02-15T04:49:31;29.20;;;9.40;;
14797;SDS011;7490;63.708;20.368;2024-02-15T04:51:57;30.70;;;10.13;;
14797;SDS011;7490;63.708;20.368;2024-02-15T04:54:23;31.37;;;10.23;;
14797;SDS011;7490;63.708;20.368;2024-02-15T04:56:49;30.87;;;10.60;;
14797;SDS011;7490;63.708;20.368;2024-02-15T04:59:19;30.67;;;9.77;;
14797;SDS011;7490;63.708;20.368;2024-02-15T05:01:46;29.37;;;10.33;;
14797;SDS011;7490;63.708;20.368;2024-02-15T05:04:12;38.37;;;10.83;;
14797;SDS011;7490;63.708;20.368;2024-02-15T05:06:39;34.70;;;10.13;;
14797;SDS011;7490;63.708;20.368;2024-02-15T05:09:05;34.10;;;9.83;;
14797;SDS011;7490;63.708;20.368;2024-02-15T05:11:36;31.13;;;9.87;;
14797;SDS011;7490;63.708;20.368;2024-02-15T05:14:06;26.20;;;9.27;;
14797;SDS011;7490;63.708;20.368;2024-02-15T05:16:32;24.03;;;9.17;;
14797;SDS011;7490;63.708;20.368;2024-02-15T05:18:59;25.87;;;8.80;;
14797;SDS011;7490;63.708;20.368;2024-02-15T05:21:25;27.53;;;10.00;;
14797;SDS011;7490;63.708;20.368;2024-02-15T05:23:50;29.03;;;9.90;;
14797;SDS011;7490;63.708;20.368;2024-02-15T05:26:18;29.60;;;9.50;;
14797;SDS011;7490;63.708;20.368;2024-02-15T05:28:51;26.70;;;8.30;;
14797;SDS011;7490;63.708;20.368;2024-02-15T05:31:17;24.47;;;9.63;;
14797;SDS011;7490;63.708;20.368;2024-02-15T05:33:47;25.53;;;8.37;;
14797;SDS011;7490;63.708;20.368;2024-02-15T05:36:13;23.10;;;8.43;;
14797;SDS011;7490;63.708;20.368;2024-02-15T05:38:39;19.63;;;7.57;;
14797;SDS011;7490;63.708;20.368;2024-02-15T05:41:05;21.90;;;7.83;;
14797;SDS011;7490;63.708;20.368;2024-02-15T05:43:35;23.40;;;8.63;;
14797;SDS011;7490;63.708;20.368;2024-02-15T05:46:02;25.00;;;8.43;;
14797;SDS011;7490;63.708;20.368;2024-02-15T05:48:28;22.50;;;8.90;;
14797;SDS011;7490;63.708;20.368;2024-02-15T05:50:57;28.33;;;9.53;;
14797;SDS011;7490;63.708;20.368;2024-02-15T05:53:24;18.87;;;8.27;;
14797;SDS011;7490;63.708;20.368;2024-02-15T05:55:50;24.77;;;9.17;;
14797;SDS011;7490;63.708;20.368;2024-02-15T05:58:16;23.23;;;8.93;;
14797;SDS011;7490;63.708;20.368;2024-02-15T06:00:42;23.53;;;9.00;;
14797;SDS011;7490;63.708;20.368;2024-02-15T06:03:09;24.90;;;9.23;;
14797;SDS011;7490;63.708;20.368;2024-02-15T06:05:39;23.97;;;9.20;;
14797;SDS011;7490;63.708;20.368;2024-02-15T06:08:05;25.33;;;9.20;;
14797;SDS011;7490;63.708;20.368;2024-02-15T06:10:31;28.83;;;9.27;;
14797;SDS011;7490;63.708;20.368;2024-02-15T06:12:57;26.90;;;9.40;;
14797;SDS011;7490;63.708;20.368;2024-02-15T06:15:25;29.70;;;9.87;;
14797;SDS011;7490;63.708;20.368;2024-02-15T06:17:51;29.63;;;9.90;;
14797;SDS011;7490;63.708;20.368;2024-02-15T06:20:17;26.77;;;9.10;;
14797;SDS011;7490;63.708;20.368;2024-02-15T06:22:44;26.37;;;9.37;;
14797;SDS011;7490;63.708;20.368;2024-02-15T06:25:13;30.40;;;9.43;;
14797;SDS011;7490;63.708;20.368;2024-02-15T06:27:40;26.73;;;9.07;;
14797;SDS011;7490;63.708;20.368;2024-02-15T06:30:10;25.40;;;9.33;;
14797;SDS011;7490;63.708;20.368;2024-02-15T06:32:55;20.37;;;8.07;;
14797;SDS011;7490;63.708;20.368;2024-02-15T06:35:40;20.00;;;8.10;;
14797;SDS011;7490;63.708;20.368;2024-02-15T06:38:24;20.23;;;7.13;;
14797;SDS011;7490;63.708;20.368;2024-02-15T06:41:08;18.57;;;7.60;;
14797;SDS011;7490;63.708;20.368;2024-02-15T06:43:34;18.87;;;7.40;;
14797;SDS011;7490;63.708;20.368;2024-02-15T06:46:00;20.77;;;7.77;;
14797;SDS011;7490;63.708;20.368;2024-02-15T06:48:27;18.83;;;7.83;;
14797;SDS011;7490;63.708;20.368;2024-02-15T06:50:53;22.80;;;8.27;;
14797;SDS011;7490;63.708;20.368;2024-02-15T06:53:19;18.73;;;7.23;;
14797;SDS011;7490;63.708;20.368;2024-02-15T06:55:48;21.10;;;7.70;;
14797;SDS011;7490;63.708;20.368;2024-02-15T06:58:17;19.57;;;6.83;;
14797;SDS011;7490;63.708;20.368;2024-02-15T07:00:43;18.77;;;6.93;;
14797;SDS011;7490;63.708;20.368;2024-02-15T07:03:09;19.10;;;8.60;;
14797;SDS011;7490;63.708;20.368;2024-02-15T07:05:36;25.90;;;8.47;;
14797;SDS011;7490;63.708;20.368;2024-02-15T07:08:04;21.20;;;7.80;;
14797;SDS011;7490;63.708;20.368;2024-02-15T07:10:30;21.67;;;7.60;;
14797;SDS011;7490;63.708;20.368;2024-02-15T07:12:56;17.67;;;6.33;;
14797;SDS011;7490;63.708;20.368;2024-02-15T07:15:22;16.37;;;6.53;;
14797;SDS011;7490;63.708;20.368;2024-02-15T07:17:48;20.27;;;7.43;;
14797;SDS011;7490;63.708;20.368;2024-02-15T07:20:13;19.80;;;6.70;;
14797;SDS011;7490;63.708;20.368;2024-02-15T07:22:42;17.87;;;6.97;;
14797;SDS011;7490;63.708;20.368;2024-02-15T07:25:10;17.20;;;6.50;;
14797;SDS011;7490;63.708;20.368;2024-02-15T07:27:36;18.87;;;7.60;;
14797;SDS011;7490;63.708;20.368;2024-02-15T07:30:02;15.90;;;6.93;;
14797;SDS011;7490;63.708;20.368;2024-02-15T07:32:29;19.93;;;7.43;;
14797;SDS011;7490;63.708;20.368;2024-02-15T07:34:56;22.63;;;7.40;;
14797;SDS011;7490;63.708;20.368;2024-02-15T07:37:22;15.60;;;7.17;;
14797;SDS011;7490;63.708;20.368;2024-02-15T07:39:51;20.10;;;7.63;;
14797;SDS011;7490;63.708;20.368;2024-02-15T07:42:17;18.60;;;6.77;;
14797;SDS011;7490;63.708;20.368;2024-02-15T07:44:42;15.97;;;6.50;;
14797;SDS011;7490;63.708;20.368;2024-02-15T07:47:08;14.80;;;6.47;;
14797;SDS011;7490;63.708;20.368;2024-02-15T07:49:35;18.10;;;6.90;;
14797;SDS011;7490;63.708;20.368;2024-02-15T07:52:02;14.30;;;6.20;;
14797;SDS011;7490;63.708;20.368;2024-02-15T07:54:29;20.57;;;6.30;;
14797;SDS011;7490;63.708;20.368;2024-02-15T07:56:56;13.70;;;5.60;;
14797;SDS011;7490;63.708;20.368;2024-02-15T07:59:23;16.53;;;5.43;;
14797;SDS011;7490;63.708;20.368;2024-02-15T08:01:49;11.30;;;5.30;;
14797;SDS011;7490;63.708;20.368;2024-02-15T08:04:17;10.30;;;4.77;;
14797;SDS011;7490;63.708;20.368;2024-02-15T08:06:43;12.13;;;4.60;;
14797;SDS011;7490;63.708;20.368;2024-02-15T08:09:09;9.97;;;4.53;;
14797;SDS011;7490;63.708;20.368;2024-02-15T08:11:39;10.50;;;4.80;;
14797;SDS011;7490;63.708;20.368;2024-02-15T08:14:05;8.60;;;4.30;;
14797;SDS011;7490;63.708;20.368;2024-02-15T08:16:35;7.77;;;3.80;;
14797;SDS011;7490;63.708;20.368;2024-02-15T08:19:01;8.03;;;4.27;;
14797;SDS011;7490;63.708;20.368;2024-02-15T08:21:28;9.10;;;4.77;;
14797;SDS011;7490;63.708;20.368;2024-02-15T08:24:01;8.63;;;3.67;;
14797;SDS011;7490;63.708;20.368;2024-02-15T08:26:36;6.17;;;3.30;;
14797;SDS011;7490;63.708;20.368;2024-02-15T08:29:03;5.47;;;3.40;;
14797;SDS011;7490;63.708;20.368;2024-02-15T08:31:29;7.40;;;3.27;;
14797;SDS011;7490;63.708;20.368;2024-02-15T08:33:59;5.47;;;3.27;;
14797;SDS011;7490;63.708;20.368;2024-02-15T08:36:26;6.53;;;3.23;;
14797;SDS011;7490;63.708;20.368;2024-02-15T08:38:51;4.37;;;3.00;;
14797;SDS011;7490;63.708;20.368;2024-02-15T08:41:17;3.83;;;3.17;;
14797;SDS011;7490;63.708;20.368;2024-02-15T08:43:43;4.00;;;2.50;;
14797;SDS011;7490;63.708;20.368;2024-02-15T08:46:13;5.60;;;2.67;;
14797;SDS011;7490;63.708;20.368;2024-02-15T08:48:39;5.57;;;2.60;;
14797;SDS011;7490;63.708;20.368;2024-02-15T08:51:05;3.57;;;2.50;;
14797;SDS011;7490;63.708;20.368;2024-02-15T08:53:34;4.57;;;2.70;;
14797;SDS011;7490;63.708;20.368;2024-02-15T08:56:02;3.53;;;2.30;;
14797;SDS011;7490;63.708;20.368;2024-02-15T08:58:28;4.20;;;2.57;;
14797;SDS011;7490;63.708;20.368;2024-02-15T09:00:55;3.33;;;2.67;;
14797;SDS011;7490;63.708;20.368;2024-02-15T09:03:21;4.23;;;2.90;;
14797;SDS011;7490;63.708;20.368;2024-02-15T09:05:47;4.13;;;2.60;;
14797;SDS011;7490;63.708;20.368;2024-02-15T09:08:13;4.67;;;2.87;;
14797;SDS011;7490;63.708;20.368;2024-02-15T09:10:40;4.43;;;2.67;;
14797;SDS011;7490;63.708;20.368;2024-02-15T09:13:07;3.97;;;2.73;;
14797;SDS011;7490;63.708;20.368;2024-02-15T09:15:33;4.27;;;2.70;;
14797;SDS011;7490;63.708;20.368;2024-02-15T09:17:59;3.20;;;2.70;;
14797;SDS011;7490;63.708;20.368;2024-02-15T09:20:25;4.20;;;2.40;;
14797;SDS011;7490;63.708;20.368;2024-02-15T09:22:53;3.43;;;2.20;;
14797;SDS011;7490;63.708;20.368;2024-02-15T09:25:23;4.07;;;2.10;;
14797;SDS011;7490;63.708;20.368;2024-02-15T09:27:49;3.33;;;2.40;;
14797;SDS011;7490;63.708;20.368;2024-02-15T09:30:16;3.20;;;2.00;;
14797;SDS011;7490;63.708;20.368;2024-02-15T09:32:42;3.53;;;2.30;;
14797;SDS011;7490;63.708;20.368;2024-02-15T09:35:09;2.87;;;2.13;;
14797;SDS011;7490;63.708;20.368;2024-02-15T09:37:43;3.43;;;2.63;;
14797;SDS011;7490;63.708;20.368;2024-02-15T09:40:15;3.83;;;2.40;;
14797;SDS011;7490;63.708;20.368;2024-02-15T09:42:43;5.13;;;2.80;;
14797;SDS011;7490;63.708;20.368;2024-02-15T09:45:12;4.33;;;2.77;;
14797;SDS011;7490;63.708;20.368;2024-02-15T09:47:40;4.17;;;2.83;;
14797;SDS011;7490;63.708;20.368;2024-02-15T09:50:07;5.80;;;2.97;;
14797;SDS011;7490;63.708;20.368;2024-02-15T09:52:36;5.20;;;3.20;;
14797;SDS011;7490;63.708;20.368;2024-02-15T09:55:05;4.83;;;3.20;;
14797;SDS011;7490;63.708;20.368;2024-02-15T09:57:38;5.40;;;3.37;;
14797;SDS011;7490;63.708;20.368;2024-02-15T10:00:12;5.40;;;3.10;;
14797;SDS011;7490;63.708;20.368;2024-02-15T10:02:40;4.93;;;3.30;;
14797;SDS011;7490;63.708;20.368;2024-02-15T10:05:09;4.03;;;2.90;;
14797;SDS011;7490;63.708;20.368;2024-02-15T10:07:42;5.27;;;2.67;;
14797;SDS011;7490;63.708;20.368;2024-02-15T10:10:22;4.00;;;2.60;;
14797;SDS011;7490;63.708;20.368;2024-02-15T10:12:54;5.30;;;2.60;;
14797;SDS011;7490;63.708;20.368;2024-02-15T10:15:39;5.53;;;2.50;;
14797;SDS011;7490;63.708;20.368;2024-02-15T10:18:10;3.77;;;2.43;;
14797;SDS011;7490;63.708;20.368;2024-02-15T10:20:37;3.83;;;2.40;;
14797;SDS011;7490;63.708;20.368;2024-02-15T10:23:12;3.73;;;2.00;;
14797;SDS011;7490;63.708;20.368;2024-02-15T10:25:42;3.00;;;1.97;;
14797;SDS011;7490;63.708;20.368;2024-02-15T10:28:09;4.63;;;2.50;;
14797;SDS011;7490;63.708;20.368;2024-02-15T10:30:44;2.67;;;1.93;;
14797;SDS011;7490;63.708;20.368;2024-02-15T10:33:25;2.80;;;2.10;;
14797;SDS011;7490;63.708;20.368;2024-02-15T10:36:10;3.77;;;2.40;;
14797;SDS011;7490;63.708;20.368;2024-02-15T10:38:41;3.67;;;2.27;;
14797;SDS011;7490;63.708;20.368;2024-02-15T10:41:07;3.73;;;2.37;;
14797;SDS011;7490;63.708;20.368;2024-02-15T10:43:33;3.00;;;2.40;;
14797;SDS011;7490;63.708;20.368;2024-02-15T10:46:02;3.80;;;2.90;;
14797;SDS011;7490;63.708;20.368;2024-02-15T10:48:28;2.90;;;2.40;;
14797;SDS011;7490;63.708;20.368;2024-02-15T10:50:56;3.60;;;2.30;;
14797;SDS011;7490;63.708;20.368;2024-02-15T10:53:27;3.10;;;1.90;;
14797;SDS011;7490;63.708;20.368;2024-02-15T10:58:40;3.00;;;2.00;;
14797;SDS011;7490;63.708;20.368;2024-02-15T11:01:16;2.50;;;2.00;;
14797;SDS011;7490;63.708;20.368;2024-02-15T11:04:02;2.67;;;2.10;;
14797;SDS011;7490;63.708;20.368;2024-02-15T11:06:38;2.17;;;1.97;;
14797;SDS011;7490;63.708;20.368;2024-02-15T11:09:06;4.87;;;2.00;;
14797;SDS011;7490;63.708;20.368;2024-02-15T11:11:33;2.00;;;1.80;;
14797;SDS011;7490;63.708;20.368;2024-02-15T11:16:48;3.17;;;1.90;;
14797;SDS011;7490;63.708;20.368;2024-02-15T11:22:00;1.73;;;1.50;;
14797;SDS011;7490;63.708;20.368;2024-02-15T11:24:34;1.93;;;1.50;;
14797;SDS011;7490;63.708;20.368;2024-02-15T11:27:04;4.10;;;1.70;;
14797;SDS011;7490;63.708;20.368;2024-02-15T11:35:24;1.47;;;1.37;;
14797;SDS011;7490;63.708;20.368;2024-02-15T11:40:18;1.63;;;1.53;;
14797;SDS011;7490;63.708;20.368;2024-02-15T11:43:08;1.80;;;1.30;;
14797;SDS011;7490;63.708;20.368;2024-02-15T11:45:58;1.97;;;1.37;;
14797;SDS011;7490;63.708;20.368;2024-02-15T11:48:25;2.17;;;1.60;;
14797;SDS011;7490;63.708;20.368;2024-02-15T11:50:51;2.67;;;1.60;;
14797;SDS011;7490;63.708;20.368;2024-02-15T11:53:16;1.57;;;1.47;;
14797;SDS011;7490;63.708;20.368;2024-02-15T11:55:43;2.13;;;1.70;;
14797;SDS011;7490;63.708;20.368;2024-02-15T11:58:09;2.37;;;1.83;;
14797;SDS011;7490;63.708;20.368;2024-02-15T12:00:36;3.20;;;1.90;;
14797;SDS011;7490;63.708;20.368;2024-02-15T12:03:21;2.17;;;1.83;;
14797;SDS011;7490;63.708;20.368;2024-02-15T12:06:05;3.20;;;1.73;;
14797;SDS011;7490;63.708;20.368;2024-02-15T12:08:51;2.83;;;1.90;;
14797;SDS011;7490;63.708;20.368;2024-02-15T12:11:36;2.50;;;1.90;;
14797;SDS011;7490;63.708;20.368;2024-02-15T12:14:20;2.77;;;2.00;;
14797;SDS011;7490;63.708;20.368;2024-02-15T12:17:08;2.30;;;2.10;;
14797;SDS011;7490;63.708;20.368;2024-02-15T12:19:54;4.10;;;2.10;;
14797;SDS011;7490;63.708;20.368;2024-02-15T12:22:28;2.23;;;1.90;;
14797;SDS011;7490;63.708;20.368;2024-02-15T12:24:59;4.77;;;1.90;;
14797;SDS011;7490;63.708;20.368;2024-02-15T12:27:26;2.00;;;1.87;;
14797;SDS011;7490;63.708;20.368;2024-02-15T12:29:58;1.87;;;1.53;;
14797;SDS011;7490;63.708;20.368;2024-02-15T12:32:27;2.20;;;2.00;;
14797;SDS011;7490;63.708;20.368;2024-02-15T12:34:53;2.40;;;2.10;;
14797;SDS011;7490;63.708;20.368;2024-02-15T12:40:36;1.77;;;1.60;;
14797;SDS011;7490;63.708;20.368;2024-02-15T12:43:06;2.70;;;1.90;;
14797;SDS011;7490;63.708;20.368;2024-02-15T12:45:36;2.20;;;2.00;;
14797;SDS011;7490;63.708;20.368;2024-02-15T12:48:03;4.87;;;2.27;;
14797;SDS011;7490;63.708;20.368;2024-02-15T12:50:30;4.97;;;2.43;;
14797;SDS011;7490;63.708;20.368;2024-02-15T12:52:57;2.30;;;2.00;;
14797;SDS011;7490;63.708;20.368;2024-02-15T12:55:29;2.13;;;1.87;;
14797;SDS011;7490;63.708;20.368;2024-02-15T12:58:02;2.07;;;1.80;;
14797;SDS011;7490;63.708;20.368;2024-02-15T13:00:30;3.20;;;2.13;;
14797;SDS011;7490;63.708;20.368;2024-02-15T13:02:58;2.00;;;1.80;;
14797;SDS011;7490;63.708;20.368;2024-02-15T13:05:28;2.80;;;2.10;;
14797;SDS011;7490;63.708;20.368;2024-02-15T13:07:55;3.27;;;2.23;;
14797;SDS011;7490;63.708;20.368;2024-02-15T13:10:27;2.17;;;1.67;;
14797;SDS011;7490;63.708;20.368;2024-02-15T13:12:54;3.90;;;2.27;;
14797;SDS011;7490;63.708;20.368;2024-02-15T13:15:21;3.67;;;1.90;;
14797;SDS011;7490;63.708;20.368;2024-02-15T13:17:52;4.07;;;2.00;;
14797;SDS011;7490;63.708;20.368;2024-02-15T13:20:25;2.13;;;1.90;;
14797;SDS011;7490;63.708;20.368;2024-02-15T13:22:58;2.57;;;1.90;;
14797;SDS011;7490;63.708;20.368;2024-02-15T13:25:28;2.83;;;2.00;;
14797;SDS011;7490;63.708;20.368;2024-02-15T13:27:54;3.67;;;2.10;;
14797;SDS011;7490;63.708;20.368;2024-02-15T13:30:21;2.30;;;1.83;;
14797;SDS011;7490;63.708;20.368;2024-02-15T13:32:51;2.33;;;1.90;;
14797;SDS011;7490;63.708;20.368;2024-02-15T13:35:19;2.47;;;2.10;;
14797;SDS011;7490;63.708;20.368;2024-02-15T13:37:49;2.27;;;2.07;;
14797;SDS011;7490;63.708;20.368;2024-02-15T13:40:17;2.20;;;1.90;;
14797;SDS011;7490;63.708;20.368;2024-02-15T13:42:45;1.90;;;1.80;;
14797;SDS011;7490;63.708;20.368;2024-02-15T13:45:16;2.00;;;1.80;;
14797;SDS011;7490;63.708;20.368;2024-02-15T13:47:44;2.90;;;2.10;;
14797;SDS011;7490;63.708;20.368;2024-02-15T13:50:11;2.50;;;2.20;;
14797;SDS011;7490;63.708;20.368;2024-02-15T13:52:39;2.27;;;2.00;;
14797;SDS011;7490;63.708;20.368;2024-02-15T13:55:15;2.13;;;1.90;;
14797;SDS011;7490;63.708;20.368;2024-02-15T13:57:42;3.27;;;1.97;;
14797;SDS011;7490;63.708;20.368;2024-02-15T14:00:10;1.97;;;1.43;;
14797;SDS011;7490;63.708;20.368;2024-02-15T14:02:42;1.70;;;1.60;;
14797;SDS011;7490;63.708;20.368;2024-02-15T14:05:08;1.57;;;1.47;;
14797;SDS011;7490;63.708;20.368;2024-02-15T14:07:36;2.20;;;1.63;;
14797;SDS011;7490;63.708;20.368;2024-02-15T14:10:05;1.80;;;1.57;;
14797;SDS011;7490;63.708;20.368;2024-02-15T14:12:31;2.13;;;1.80;;
14797;SDS011;7490;63.708;20.368;2024-02-15T14:14:57;1.83;;;1.73;;
14797;SDS011;7490;63.708;20.368;2024-02-15T14:17:23;1.70;;;1.60;;
14797;SDS011;7490;63.708;20.368;2024-02-15T14:19:49;2.70;;;1.87;;
14797;SDS011;7490;63.708;20.368;2024-02-15T14:22:14;2.57;;;2.00;;
14797;SDS011;7490;63.708;20.368;2024-02-15T14:24:43;1.60;;;1.50;;
14797;SDS011;7490;63.708;20.368;2024-02-15T14:27:09;2.90;;;1.73;;
14797;SDS011;7490;63.708;20.368;2024-02-15T14:29:36;3.00;;;1.60;;
14797;SDS011;7490;63.708;20.368;2024-02-15T14:32:09;2.67;;;1.90;;
14797;SDS011;7490;63.708;20.368;2024-02-15T14:34:56;2.27;;;2.07;;
14797;SDS011;7490;63.708;20.368;2024-02-15T14:37:22;2.60;;;1.80;;
14797;SDS011;7490;63.708;20.368;2024-02-15T14:39:49;2.33;;;1.70;;
14797;SDS011;7490;63.708;20.368;2024-02-15T14:42:15;2.70;;;2.00;;
14797;SDS011;7490;63.708;20.368;2024-02-15T14:44:41;2.13;;;1.73;;
14797;SDS011;7490;63.708;20.368;2024-02-15T14:47:08;1.70;;;1.60;;
14797;SDS011;7490;63.708;20.368;2024-02-15T14:49:33;2.03;;;1.70;;
14797;SDS011;7490;63.708;20.368;2024-02-15T14:52:00;1.87;;;1.67;;
14797;SDS011;7490;63.708;20.368;2024-02-15T14:54:26;3.20;;;1.67;;
14797;SDS011;7490;63.708;20.368;2024-02-15T14:56:52;1.97;;;1.70;;
14797;SDS011;7490;63.708;20.368;2024-02-15T14:59:19;2.67;;;1.90;;
14797;SDS011;7490;63.708;20.368;2024-02-15T15:01:44;3.73;;;2.53;;
14797;SDS011;7490;63.708;20.368;2024-02-15T15:04:10;2.40;;;1.60;;
14797;SDS011;7490;63.708;20.368;2024-02-15T15:06:37;3.13;;;2.23;;
14797;SDS011;7490;63.708;20.368;2024-02-15T15:09:22;3.47;;;2.10;;